sensor_id;sensor_type;location;lat;lon;timestamp;P1;durP1;ratioP1;P2;durP2;ratioP2
26080;SDS011;13991;51.174;4.438;2023-06-14T00:01:50;13.23;;;5.10;;
26080;SDS011;13991;51.174;4.438;2023-06-14T00:04:16;17.80;;;5.73;;
26080;SDS011;13991;51.174;4.438;2023-06-14T00:06:42;20.03;;;4.83;;
26080;SDS011;13991;51.174;4.438;2023-06-14T00:09:10;28.23;;;5.43;;
26080;SDS011;13991;51.174;4.438;2023-06-14T00:11:40;12.77;;;4.87;;
26080;SDS011;13991;51.174;4.438;2023-06-14T00:14:06;9.00;;;5.13;;
26080;SDS011;13991;51.174;4.438;2023-06-14T00:16:32;9.93;;;4.80;;
26080;SDS011;13991;51.174;4.438;2023-06-14T00:18:58;15.80;;;5.50;;
26080;SDS011;13991;51.174;4.438;2023-06-14T00:21:24;9.90;;;5.27;;
26080;SDS011;13991;51.174;4.438;2023-06-14T00:23:55;13.50;;;5.30;;
26080;SDS011;13991;51.174;4.438;2023-06-14T00:26:21;11.10;;;5.53;;
26080;SDS011;13991;51.174;4.438;2023-06-14T00:28:46;14.77;;;6.07;;
26080;SDS011;13991;51.174;4.438;2023-06-14T00:31:12;10.07;;;5.47;;
26080;SDS011;13991;51.174;4.438;2023-06-14T00:33:40;16.17;;;5.30;;
26080;SDS011;13991;51.174;4.438;2023-06-14T00:36:06;16.97;;;5.80;;
26080;SDS011;13991;51.174;4.438;2023-06-14T00:38:32;13.33;;;5.87;;
26080;SDS011;13991;51.174;4.438;2023-06-14T00:41:00;15.23;;;5.90;;
26080;SDS011;13991;51.174;4.438;2023-06-14T00:43:31;12.67;;;5.17;;
26080;SDS011;13991;51.174;4.438;2023-06-14T00:46:05;14.83;;;5.50;;
26080;SDS011;13991;51.174;4.438;2023-06-14T00:48:30;13.73;;;5.20;;
26080;SDS011;13991;51.174;4.438;2023-06-14T00:50:58;16.83;;;5.43;;
26080;SDS011;13991;51.174;4.438;2023-06-14T00:53:29;23.50;;;5.20;;
26080;SDS011;13991;51.174;4.438;2023-06-14T00:55:56;13.63;;;4.97;;
26080;SDS011;13991;51.174;4.438;2023-06-14T00:58:22;17.67;;;5.17;;
26080;SDS011;13991;51.174;4.438;2023-06-14T01:00:48;17.60;;;5.77;;
26080;SDS011;13991;51.174;4.438;2023-06-14T01:03:13;20.80;;;5.73;;
26080;SDS011;13991;51.174;4.438;2023-06-14T01:05:47;22.10;;;6.00;;
26080;SDS011;13991;51.174;4.438;2023-06-14T01:08:31;12.87;;;5.67;;
26080;SDS011;13991;51.174;4.438;2023-06-14T01:11:18;12.47;;;5.27;;
26080;SDS011;13991;51.174;4.438;2023-06-14T01:13:52;22.80;;;5.67;;
26080;SDS011;13991;51.174;4.438;2023-06-14T01:16:20;19.47;;;5.73;;
26080;SDS011;13991;51.174;4.438;2023-06-14T01:18:46;12.73;;;5.33;;
26080;SDS011;13991;51.174;4.438;2023-06-14T01:21:24;9.97;;;4.67;;
26080;SDS011;13991;51.174;4.438;2023-06-14T01:23:51;12.40;;;4.97;;
26080;SDS011;13991;51.174;4.438;2023-06-14T01:26:20;13.80;;;5.43;;
26080;SDS011;13991;51.174;4.438;2023-06-14T01:28:46;14.33;;;5.23;;
26080;SDS011;13991;51.174;4.438;2023-06-14T01:31:16;16.80;;;5.43;;
26080;SDS011;13991;51.174;4.438;2023-06-14T01:33:46;11.37;;;5.27;;
26080;SDS011;13991;51.174;4.438;2023-06-14T01:36:14;9.30;;;5.07;;
26080;SDS011;13991;51.174;4.438;2023-06-14T01:38:41;12.53;;;4.97;;
26080;SDS011;13991;51.174;4.438;2023-06-14T01:41:09;11.63;;;5.20;;
26080;SDS011;13991;51.174;4.438;2023-06-14T01:43:35;10.73;;;4.83;;
26080;SDS011;13991;51.174;4.438;2023-06-14T01:46:05;17.67;;;5.13;;
26080;SDS011;13991;51.174;4.438;2023-06-14T01:48:32;27.77;;;4.57;;
26080;SDS011;13991;51.174;4.438;2023-06-14T01:50:59;9.43;;;4.90;;
26080;SDS011;13991;51.174;4.438;2023-06-14T01:53:25;13.30;;;5.30;;
26080;SDS011;13991;51.174;4.438;2023-06-14T01:55:51;9.47;;;4.57;;
26080;SDS011;13991;51.174;4.438;2023-06-14T01:58:19;12.20;;;4.60;;
26080;SDS011;13991;51.174;4.438;2023-06-14T02:00:46;10.93;;;4.63;;
26080;SDS011;13991;51.174;4.438;2023-06-14T02:03:12;11.90;;;4.20;;
26080;SDS011;13991;51.174;4.438;2023-06-14T02:05:38;30.80;;;4.77;;
26080;SDS011;13991;51.174;4.438;2023-06-14T02:08:05;13.10;;;5.03;;
26080;SDS011;13991;51.174;4.438;2023-06-14T02:10:31;10.23;;;4.67;;
26080;SDS011;13991;51.174;4.438;2023-06-14T02:12:57;12.33;;;4.47;;
26080;SDS011;13991;51.174;4.438;2023-06-14T02:15:25;10.17;;;4.20;;
26080;SDS011;13991;51.174;4.438;2023-06-14T02:17:52;13.67;;;4.90;;
26080;SDS011;13991;51.174;4.438;2023-06-14T02:20:19;10.53;;;4.50;;
26080;SDS011;13991;51.174;4.438;2023-06-14T02:22:45;24.73;;;5.57;;
26080;SDS011;13991;51.174;4.438;2023-06-14T02:25:10;16.57;;;4.57;;
26080;SDS011;13991;51.174;4.438;2023-06-14T02:27:36;13.43;;;5.30;;
26080;SDS011;13991;51.174;4.438;2023-06-14T02:30:02;16.77;;;5.73;;
26080;SDS011;13991;51.174;4.438;2023-06-14T02:32:28;15.53;;;4.63;;
26080;SDS011;13991;51.174;4.438;2023-06-14T02:34:53;12.33;;;5.40;;
26080;SDS011;13991;51.174;4.438;2023-06-14T02:37:19;9.93;;;4.07;;
26080;SDS011;13991;51.174;4.438;2023-06-14T02:39:45;12.87;;;4.50;;
26080;SDS011;13991;51.174;4.438;2023-06-14T02:42:11;9.07;;;4.23;;
26080;SDS011;13991;51.174;4.438;2023-06-14T02:44:37;15.37;;;4.80;;
26080;SDS011;13991;51.174;4.438;2023-06-14T02:47:03;8.97;;;4.77;;
26080;SDS011;13991;51.174;4.438;2023-06-14T02:49:30;12.97;;;5.20;;
26080;SDS011;13991;51.174;4.438;2023-06-14T02:51:55;14.13;;;4.87;;
26080;SDS011;13991;51.174;4.438;2023-06-14T02:54:21;13.23;;;4.17;;
26080;SDS011;13991;51.174;4.438;2023-06-14T02:56:47;18.63;;;4.87;;
26080;SDS011;13991;51.174;4.438;2023-06-14T02:59:13;15.23;;;5.07;;
26080;SDS011;13991;51.174;4.438;2023-06-14T03:01:40;16.47;;;4.93;;
26080;SDS011;13991;51.174;4.438;2023-06-14T03:04:06;20.67;;;4.63;;
26080;SDS011;13991;51.174;4.438;2023-06-14T03:06:33;18.40;;;4.10;;
26080;SDS011;13991;51.174;4.438;2023-06-14T03:08:59;10.77;;;4.13;;
26080;SDS011;13991;51.174;4.438;2023-06-14T03:11:29;13.27;;;4.73;;
26080;SDS011;13991;51.174;4.438;2023-06-14T03:13:57;7.47;;;4.87;;
26080;SDS011;13991;51.174;4.438;2023-06-14T03:16:23;13.20;;;5.30;;
26080;SDS011;13991;51.174;4.438;2023-06-14T03:18:52;12.87;;;4.70;;
26080;SDS011;13991;51.174;4.438;2023-06-14T03:21:18;10.27;;;4.93;;
26080;SDS011;13991;51.174;4.438;2023-06-14T03:23:45;13.67;;;5.50;;
26080;SDS011;13991;51.174;4.438;2023-06-14T03:26:11;10.10;;;4.83;;
26080;SDS011;13991;51.174;4.438;2023-06-14T03:28:46;8.47;;;4.67;;
26080;SDS011;13991;51.174;4.438;2023-06-14T03:31:13;16.87;;;4.20;;
26080;SDS011;13991;51.174;4.438;2023-06-14T03:33:40;23.47;;;5.10;;
26080;SDS011;13991;51.174;4.438;2023-06-14T03:36:05;7.20;;;3.93;;
26080;SDS011;13991;51.174;4.438;2023-06-14T03:38:31;9.27;;;4.60;;
26080;SDS011;13991;51.174;4.438;2023-06-14T03:40:57;10.40;;;4.83;;
26080;SDS011;13991;51.174;4.438;2023-06-14T03:43:23;10.40;;;4.30;;
26080;SDS011;13991;51.174;4.438;2023-06-14T03:45:48;12.67;;;5.23;;
26080;SDS011;13991;51.174;4.438;2023-06-14T03:48:14;21.33;;;5.10;;
26080;SDS011;13991;51.174;4.438;2023-06-14T03:50:40;8.93;;;4.23;;
26080;SDS011;13991;51.174;4.438;2023-06-14T03:53:08;18.03;;;4.57;;
26080;SDS011;13991;51.174;4.438;2023-06-14T03:55:34;18.30;;;4.93;;
26080;SDS011;13991;51.174;4.438;2023-06-14T03:58:00;11.23;;;4.47;;
26080;SDS011;13991;51.174;4.438;2023-06-14T04:03:17;14.23;;;4.90;;
26080;SDS011;13991;51.174;4.438;2023-06-14T04:05:44;14.37;;;4.37;;
26080;SDS011;13991;51.174;4.438;2023-06-14T04:08:14;16.87;;;4.07;;
26080;SDS011;13991;51.174;4.438;2023-06-14T04:10:40;15.87;;;5.00;;
26080;SDS011;13991;51.174;4.438;2023-06-14T04:13:10;17.97;;;5.43;;
26080;SDS011;13991;51.174;4.438;2023-06-14T04:15:38;24.47;;;4.87;;
26080;SDS011;13991;51.174;4.438;2023-06-14T04:18:07;14.17;;;4.73;;
26080;SDS011;13991;51.174;4.438;2023-06-14T04:20:33;20.53;;;5.30;;
26080;SDS011;13991;51.174;4.438;2023-06-14T04:23:10;17.60;;;4.97;;
26080;SDS011;13991;51.174;4.438;2023-06-14T04:25:37;10.17;;;5.60;;
26080;SDS011;13991;51.174;4.438;2023-06-14T04:28:03;14.77;;;4.40;;
26080;SDS011;13991;51.174;4.438;2023-06-14T04:30:32;19.37;;;4.87;;
26080;SDS011;13991;51.174;4.438;2023-06-14T04:33:06;23.07;;;4.60;;
26080;SDS011;13991;51.174;4.438;2023-06-14T04:35:35;19.07;;;4.77;;
26080;SDS011;13991;51.174;4.438;2023-06-14T04:38:02;11.57;;;4.93;;
26080;SDS011;13991;51.174;4.438;2023-06-14T04:40:34;13.37;;;4.70;;
26080;SDS011;13991;51.174;4.438;2023-06-14T04:43:08;19.07;;;5.03;;
26080;SDS011;13991;51.174;4.438;2023-06-14T04:45:38;20.33;;;5.07;;
26080;SDS011;13991;51.174;4.438;2023-06-14T04:48:04;17.63;;;5.13;;
26080;SDS011;13991;51.174;4.438;2023-06-14T04:50:31;13.60;;;4.40;;
26080;SDS011;13991;51.174;4.438;2023-06-14T04:52:58;14.03;;;5.30;;
26080;SDS011;13991;51.174;4.438;2023-06-14T04:55:24;26.77;;;5.17;;
26080;SDS011;13991;51.174;4.438;2023-06-14T04:57:51;17.30;;;5.20;;
26080;SDS011;13991;51.174;4.438;2023-06-14T05:00:24;19.17;;;4.90;;
26080;SDS011;13991;51.174;4.438;2023-06-14T05:02:50;18.40;;;5.00;;
26080;SDS011;13991;51.174;4.438;2023-06-14T05:08:25;14.27;;;5.27;;
26080;SDS011;13991;51.174;4.438;2023-06-14T05:10:51;26.20;;;5.87;;
26080;SDS011;13991;51.174;4.438;2023-06-14T05:13:18;14.77;;;4.83;;
26080;SDS011;13991;51.174;4.438;2023-06-14T05:15:44;18.07;;;5.30;;
26080;SDS011;13991;51.174;4.438;2023-06-14T05:18:09;13.43;;;5.30;;
26080;SDS011;13991;51.174;4.438;2023-06-14T05:20:35;13.57;;;5.17;;
26080;SDS011;13991;51.174;4.438;2023-06-14T05:23:02;14.70;;;6.00;;
26080;SDS011;13991;51.174;4.438;2023-06-14T05:25:28;15.10;;;6.10;;
26080;SDS011;13991;51.174;4.438;2023-06-14T05:27:54;11.63;;;4.73;;
26080;SDS011;13991;51.174;4.438;2023-06-14T05:33:42;15.40;;;5.20;;
26080;SDS011;13991;51.174;4.438;2023-06-14T05:36:07;25.63;;;5.10;;
26080;SDS011;13991;51.174;4.438;2023-06-14T05:38:35;18.23;;;5.73;;
26080;SDS011;13991;51.174;4.438;2023-06-14T05:41:02;22.43;;;5.20;;
26080;SDS011;13991;51.174;4.438;2023-06-14T05:43:27;15.23;;;5.30;;
26080;SDS011;13991;51.174;4.438;2023-06-14T05:45:53;15.30;;;6.70;;
26080;SDS011;13991;51.174;4.438;2023-06-14T05:48:19;14.30;;;5.60;;
26080;SDS011;13991;51.174;4.438;2023-06-14T05:50:44;28.47;;;5.90;;
26080;SDS011;13991;51.174;4.438;2023-06-14T05:53:12;30.00;;;5.57;;
26080;SDS011;13991;51.174;4.438;2023-06-14T05:55:37;21.17;;;6.20;;
26080;SDS011;13991;51.174;4.438;2023-06-14T05:58:03;18.17;;;6.03;;
26080;SDS011;13991;51.174;4.438;2023-06-14T06:00:29;12.43;;;5.13;;
26080;SDS011;13991;51.174;4.438;2023-06-14T06:02:54;12.13;;;5.53;;
26080;SDS011;13991;51.174;4.438;2023-06-14T06:05:22;23.00;;;5.70;;
26080;SDS011;13991;51.174;4.438;2023-06-14T06:07:48;21.63;;;6.30;;
26080;SDS011;13991;51.174;4.438;2023-06-14T06:10:14;13.43;;;4.97;;
26080;SDS011;13991;51.174;4.438;2023-06-14T06:12:43;27.87;;;5.43;;
26080;SDS011;13991;51.174;4.438;2023-06-14T06:15:09;12.10;;;5.07;;
26080;SDS011;13991;51.174;4.438;2023-06-14T06:17:39;15.87;;;6.23;;
26080;SDS011;13991;51.174;4.438;2023-06-14T06:20:05;17.93;;;6.37;;
26080;SDS011;13991;51.174;4.438;2023-06-14T06:22:33;13.13;;;6.40;;
26080;SDS011;13991;51.174;4.438;2023-06-14T06:24:59;15.83;;;5.67;;
26080;SDS011;13991;51.174;4.438;2023-06-14T06:27:25;16.17;;;5.23;;
26080;SDS011;13991;51.174;4.438;2023-06-14T06:29:51;15.47;;;5.77;;
26080;SDS011;13991;51.174;4.438;2023-06-14T06:32:17;14.90;;;5.10;;
26080;SDS011;13991;51.174;4.438;2023-06-14T06:34:43;20.27;;;5.67;;
26080;SDS011;13991;51.174;4.438;2023-06-14T06:37:08;27.20;;;5.70;;
26080;SDS011;13991;51.174;4.438;2023-06-14T06:39:34;13.33;;;5.40;;
26080;SDS011;13991;51.174;4.438;2023-06-14T06:42:00;26.70;;;5.77;;
26080;SDS011;13991;51.174;4.438;2023-06-14T06:44:26;16.07;;;5.07;;
26080;SDS011;13991;51.174;4.438;2023-06-14T06:46:51;25.77;;;5.20;;
26080;SDS011;13991;51.174;4.438;2023-06-14T06:49:17;20.07;;;4.77;;
26080;SDS011;13991;51.174;4.438;2023-06-14T06:51:43;10.23;;;4.80;;
26080;SDS011;13991;51.174;4.438;2023-06-14T06:54:09;23.53;;;5.67;;
26080;SDS011;13991;51.174;4.438;2023-06-14T06:56:35;26.03;;;5.43;;
26080;SDS011;13991;51.174;4.438;2023-06-14T06:59:01;16.80;;;5.00;;
26080;SDS011;13991;51.174;4.438;2023-06-14T07:01:27;15.33;;;5.10;;
26080;SDS011;13991;51.174;4.438;2023-06-14T07:03:54;18.43;;;5.87;;
26080;SDS011;13991;51.174;4.438;2023-06-14T07:06:20;11.13;;;4.80;;
26080;SDS011;13991;51.174;4.438;2023-06-14T07:08:46;11.07;;;4.93;;
26080;SDS011;13991;51.174;4.438;2023-06-14T07:11:13;21.57;;;5.40;;
26080;SDS011;13991;51.174;4.438;2023-06-14T07:13:39;22.13;;;5.67;;
26080;SDS011;13991;51.174;4.438;2023-06-14T07:16:05;15.90;;;4.97;;
26080;SDS011;13991;51.174;4.438;2023-06-14T07:18:31;20.57;;;5.00;;
26080;SDS011;13991;51.174;4.438;2023-06-14T07:20:57;11.10;;;5.00;;
26080;SDS011;13991;51.174;4.438;2023-06-14T07:23:23;12.53;;;4.73;;
26080;SDS011;13991;51.174;4.438;2023-06-14T07:25:48;13.53;;;4.30;;
26080;SDS011;13991;51.174;4.438;2023-06-14T07:28:16;18.10;;;5.03;;
26080;SDS011;13991;51.174;4.438;2023-06-14T07:30:42;16.20;;;5.30;;
26080;SDS011;13991;51.174;4.438;2023-06-14T07:33:09;12.23;;;4.27;;
26080;SDS011;13991;51.174;4.438;2023-06-14T07:35:36;21.47;;;4.83;;
26080;SDS011;13991;51.174;4.438;2023-06-14T07:38:02;10.50;;;4.60;;
26080;SDS011;13991;51.174;4.438;2023-06-14T07:40:27;20.47;;;4.37;;
26080;SDS011;13991;51.174;4.438;2023-06-14T07:42:53;25.60;;;4.80;;
26080;SDS011;13991;51.174;4.438;2023-06-14T07:45:19;31.10;;;5.50;;
26080;SDS011;13991;51.174;4.438;2023-06-14T07:47:45;19.57;;;5.17;;
26080;SDS011;13991;51.174;4.438;2023-06-14T07:50:11;12.93;;;5.37;;
26080;SDS011;13991;51.174;4.438;2023-06-14T07:52:38;28.87;;;5.80;;
26080;SDS011;13991;51.174;4.438;2023-06-14T07:55:03;25.70;;;6.97;;
26080;SDS011;13991;51.174;4.438;2023-06-14T07:57:30;32.70;;;6.10;;
26080;SDS011;13991;51.174;4.438;2023-06-14T07:59:56;19.67;;;5.20;;
26080;SDS011;13991;51.174;4.438;2023-06-14T08:02:21;25.27;;;4.70;;
26080;SDS011;13991;51.174;4.438;2023-06-14T08:04:47;21.07;;;5.90;;
26080;SDS011;13991;51.174;4.438;2023-06-14T08:07:13;9.90;;;5.07;;
26080;SDS011;13991;51.174;4.438;2023-06-14T08:09:39;19.70;;;5.20;;
26080;SDS011;13991;51.174;4.438;2023-06-14T08:12:06;15.30;;;5.77;;
26080;SDS011;13991;51.174;4.438;2023-06-14T08:14:33;12.67;;;4.97;;
26080;SDS011;13991;51.174;4.438;2023-06-14T08:16:59;27.73;;;5.77;;
26080;SDS011;13991;51.174;4.438;2023-06-14T08:19:24;11.50;;;5.13;;
26080;SDS011;13991;51.174;4.438;2023-06-14T08:21:50;17.63;;;5.37;;
26080;SDS011;13991;51.174;4.438;2023-06-14T08:24:16;23.27;;;6.03;;
26080;SDS011;13991;51.174;4.438;2023-06-14T08:26:42;16.33;;;5.57;;
26080;SDS011;13991;51.174;4.438;2023-06-14T08:29:07;31.10;;;5.67;;
26080;SDS011;13991;51.174;4.438;2023-06-14T08:31:33;17.70;;;5.60;;
26080;SDS011;13991;51.174;4.438;2023-06-14T08:33:59;16.35;;;6.22;;
26080;SDS011;13991;51.174;4.438;2023-06-14T08:36:25;26.63;;;5.45;;
26080;SDS011;13991;51.174;4.438;2023-06-14T08:38:50;17.30;;;5.20;;
26080;SDS011;13991;51.174;4.438;2023-06-14T08:41:20;17.50;;;5.50;;
26080;SDS011;13991;51.174;4.438;2023-06-14T08:43:48;16.80;;;5.27;;
26080;SDS011;13991;51.174;4.438;2023-06-14T08:46:14;26.77;;;5.57;;
26080;SDS011;13991;51.174;4.438;2023-06-14T08:48:45;14.88;;;5.70;;
26080;SDS011;13991;51.174;4.438;2023-06-14T08:51:12;16.58;;;5.82;;
26080;SDS011;13991;51.174;4.438;2023-06-14T08:53:41;14.57;;;5.13;;
26080;SDS011;13991;51.174;4.438;2023-06-14T08:56:08;13.23;;;5.53;;
26080;SDS011;13991;51.174;4.438;2023-06-14T08:58:38;10.27;;;4.20;;
26080;SDS011;13991;51.174;4.438;2023-06-14T09:01:10;21.00;;;4.50;;
26080;SDS011;13991;51.174;4.438;2023-06-14T09:03:41;16.63;;;4.72;;
26080;SDS011;13991;51.174;4.438;2023-06-14T09:06:08;19.00;;;5.50;;
26080;SDS011;13991;51.174;4.438;2023-06-14T09:08:40;10.13;;;4.50;;
26080;SDS011;13991;51.174;4.438;2023-06-14T09:11:13;21.13;;;4.93;;
26080;SDS011;13991;51.174;4.438;2023-06-14T09:13:39;20.98;;;4.53;;
26080;SDS011;13991;51.174;4.438;2023-06-14T09:16:06;20.63;;;5.38;;
26080;SDS011;13991;51.174;4.438;2023-06-14T09:18:35;14.35;;;4.88;;
26080;SDS011;13991;51.174;4.438;2023-06-14T09:21:06;18.35;;;4.10;;
26080;SDS011;13991;51.174;4.438;2023-06-14T09:23:36;13.35;;;5.10;;
26080;SDS011;13991;51.174;4.438;2023-06-14T09:26:12;14.27;;;4.80;;
26080;SDS011;13991;51.174;4.438;2023-06-14T09:28:43;13.65;;;5.00;;
26080;SDS011;13991;51.174;4.438;2023-06-14T09:31:13;19.33;;;4.95;;
26080;SDS011;13991;51.174;4.438;2023-06-14T09:33:44;16.92;;;4.47;;
26080;SDS011;13991;51.174;4.438;2023-06-14T09:36:14;12.85;;;4.47;;
26080;SDS011;13991;51.174;4.438;2023-06-14T09:38:57;11.57;;;4.35;;
26080;SDS011;13991;51.174;4.438;2023-06-14T09:44:00;13.40;;;4.22;;
26080;SDS011;13991;51.174;4.438;2023-06-14T09:46:27;13.35;;;3.92;;
26080;SDS011;13991;51.174;4.438;2023-06-14T09:48:59;14.40;;;3.60;;
26080;SDS011;13991;51.174;4.438;2023-06-14T09:51:26;11.23;;;3.80;;
26080;SDS011;13991;51.174;4.438;2023-06-14T09:53:54;7.57;;;3.13;;
26080;SDS011;13991;51.174;4.438;2023-06-14T09:56:26;7.80;;;3.85;;
26080;SDS011;13991;51.174;4.438;2023-06-14T09:58:55;12.57;;;3.42;;
26080;SDS011;13991;51.174;4.438;2023-06-14T10:01:26;17.05;;;4.25;;
26080;SDS011;13991;51.174;4.438;2023-06-14T10:03:55;10.45;;;4.18;;
26080;SDS011;13991;51.174;4.438;2023-06-14T10:06:28;10.65;;;3.38;;
26080;SDS011;13991;51.174;4.438;2023-06-14T10:08:56;30.67;;;4.72;;
26080;SDS011;13991;51.174;4.438;2023-06-14T10:11:25;7.03;;;2.85;;
26080;SDS011;13991;51.174;4.438;2023-06-14T10:13:51;22.10;;;3.20;;
26080;SDS011;13991;51.174;4.438;2023-06-14T10:16:37;9.05;;;3.60;;
26080;SDS011;13991;51.174;4.438;2023-06-14T10:19:11;12.80;;;3.58;;
26080;SDS011;13991;51.174;4.438;2023-06-14T10:24:41;16.55;;;3.40;;
26080;SDS011;13991;51.174;4.438;2023-06-14T10:27:08;9.63;;;3.28;;
26080;SDS011;13991;51.174;4.438;2023-06-14T10:32:20;13.20;;;3.38;;
26080;SDS011;13991;51.174;4.438;2023-06-14T10:37:29;9.93;;;3.38;;
26080;SDS011;13991;51.174;4.438;2023-06-14T10:39:55;7.82;;;2.63;;
26080;SDS011;13991;51.174;4.438;2023-06-14T10:42:21;13.60;;;2.80;;
26080;SDS011;13991;51.174;4.438;2023-06-14T10:44:55;10.77;;;2.58;;
26080;SDS011;13991;51.174;4.438;2023-06-14T10:47:25;16.33;;;3.38;;
26080;SDS011;13991;51.174;4.438;2023-06-14T10:49:51;11.00;;;3.25;;
26080;SDS011;13991;51.174;4.438;2023-06-14T10:52:27;15.45;;;3.47;;
26080;SDS011;13991;51.174;4.438;2023-06-14T10:55:05;11.98;;;3.03;;
26080;SDS011;13991;51.174;4.438;2023-06-14T10:57:44;12.63;;;3.50;;
26080;SDS011;13991;51.174;4.438;2023-06-14T11:00:12;13.25;;;3.47;;
26080;SDS011;13991;51.174;4.438;2023-06-14T11:05:41;15.30;;;2.42;;
26080;SDS011;13991;51.174;4.438;2023-06-14T11:10:39;11.75;;;2.95;;
26080;SDS011;13991;51.174;4.438;2023-06-14T11:13:10;6.50;;;2.60;;
26080;SDS011;13991;51.174;4.438;2023-06-14T11:15:37;13.32;;;2.90;;
26080;SDS011;13991;51.174;4.438;2023-06-14T11:18:07;13.98;;;2.83;;
26080;SDS011;13991;51.174;4.438;2023-06-14T11:20:35;13.02;;;3.30;;
26080;SDS011;13991;51.174;4.438;2023-06-14T11:23:01;13.77;;;3.03;;
26080;SDS011;13991;51.174;4.438;2023-06-14T11:25:28;9.35;;;2.80;;
26080;SDS011;13991;51.174;4.438;2023-06-14T11:27:58;10.65;;;2.78;;
26080;SDS011;13991;51.174;4.438;2023-06-14T11:30:24;13.80;;;2.67;;
26080;SDS011;13991;51.174;4.438;2023-06-14T11:32:53;9.38;;;3.25;;
26080;SDS011;13991;51.174;4.438;2023-06-14T11:35:31;16.50;;;2.70;;
26080;SDS011;13991;51.174;4.438;2023-06-14T11:38:01;10.52;;;2.95;;
26080;SDS011;13991;51.174;4.438;2023-06-14T11:40:27;15.43;;;2.67;;
26080;SDS011;13991;51.174;4.438;2023-06-14T11:42:59;11.55;;;3.08;;
26080;SDS011;13991;51.174;4.438;2023-06-14T11:45:26;14.38;;;3.00;;
26080;SDS011;13991;51.174;4.438;2023-06-14T11:47:55;8.70;;;2.50;;
26080;SDS011;13991;51.174;4.438;2023-06-14T11:50:22;16.33;;;2.80;;
26080;SDS011;13991;51.174;4.438;2023-06-14T11:53:06;14.77;;;2.75;;
26080;SDS011;13991;51.174;4.438;2023-06-14T11:55:38;16.83;;;2.50;;
26080;SDS011;13991;51.174;4.438;2023-06-14T11:58:05;8.80;;;2.95;;
26080;SDS011;13991;51.174;4.438;2023-06-14T12:00:32;8.05;;;2.30;;
26080;SDS011;13991;51.174;4.438;2023-06-14T12:03:00;10.07;;;2.47;;
26080;SDS011;13991;51.174;4.438;2023-06-14T12:05:26;5.72;;;2.65;;
26080;SDS011;13991;51.174;4.438;2023-06-14T12:07:59;7.90;;;2.63;;
26080;SDS011;13991;51.174;4.438;2023-06-14T12:10:26;6.10;;;2.72;;
26080;SDS011;13991;51.174;4.438;2023-06-14T12:12:56;7.20;;;3.13;;
26080;SDS011;13991;51.174;4.438;2023-06-14T12:15:28;8.45;;;2.30;;
26080;SDS011;13991;51.174;4.438;2023-06-14T12:17:57;5.40;;;2.08;;
26080;SDS011;13991;51.174;4.438;2023-06-14T12:20:28;5.13;;;2.08;;
26080;SDS011;13991;51.174;4.438;2023-06-14T12:22:55;7.93;;;2.45;;
26080;SDS011;13991;51.174;4.438;2023-06-14T12:25:32;11.45;;;2.75;;
26080;SDS011;13991;51.174;4.438;2023-06-14T12:28:07;5.70;;;2.85;;
26080;SDS011;13991;51.174;4.438;2023-06-14T12:30:34;3.83;;;2.15;;
26080;SDS011;13991;51.174;4.438;2023-06-14T12:33:01;12.05;;;2.10;;
26080;SDS011;13991;51.174;4.438;2023-06-14T12:35:27;11.63;;;1.90;;
26080;SDS011;13991;51.174;4.438;2023-06-14T12:37:57;12.13;;;2.63;;
26080;SDS011;13991;51.174;4.438;2023-06-14T12:40:23;8.15;;;2.50;;
26080;SDS011;13991;51.174;4.438;2023-06-14T12:42:49;10.32;;;1.88;;
26080;SDS011;13991;51.174;4.438;2023-06-14T12:45:15;13.10;;;1.58;;
26080;SDS011;13991;51.174;4.438;2023-06-14T12:47:41;4.43;;;1.55;;
26080;SDS011;13991;51.174;4.438;2023-06-14T12:50:07;6.65;;;2.15;;
26080;SDS011;13991;51.174;4.438;2023-06-14T12:52:36;8.07;;;2.00;;
26080;SDS011;13991;51.174;4.438;2023-06-14T12:55:05;12.90;;;2.53;;
26080;SDS011;13991;51.174;4.438;2023-06-14T12:57:43;7.15;;;1.88;;
26080;SDS011;13991;51.174;4.438;2023-06-14T13:00:09;3.15;;;1.40;;
26080;SDS011;13991;51.174;4.438;2023-06-14T13:02:35;6.47;;;1.75;;
26080;SDS011;13991;51.174;4.438;2023-06-14T13:05:02;17.42;;;1.63;;
26080;SDS011;13991;51.174;4.438;2023-06-14T13:07:28;13.23;;;1.88;;
26080;SDS011;13991;51.174;4.438;2023-06-14T13:09:54;6.85;;;1.77;;
26080;SDS011;13991;51.174;4.438;2023-06-14T13:12:20;7.15;;;1.23;;
26080;SDS011;13991;51.174;4.438;2023-06-14T13:14:49;6.75;;;1.08;;
26080;SDS011;13991;51.174;4.438;2023-06-14T13:17:35;3.30;;;1.20;;
26080;SDS011;13991;51.174;4.438;2023-06-14T13:20:08;9.80;;;1.42;;
26080;SDS011;13991;51.174;4.438;2023-06-14T13:22:35;9.48;;;1.25;;
26080;SDS011;13991;51.174;4.438;2023-06-14T13:25:01;3.33;;;1.20;;
26080;SDS011;13991;51.174;4.438;2023-06-14T13:27:29;5.88;;;1.05;;
26080;SDS011;13991;51.174;4.438;2023-06-14T13:29:55;6.07;;;1.30;;
26080;SDS011;13991;51.174;4.438;2023-06-14T13:32:21;4.05;;;1.30;;
26080;SDS011;13991;51.174;4.438;2023-06-14T13:34:47;4.68;;;0.90;;
26080;SDS011;13991;51.174;4.438;2023-06-14T13:37:13;4.70;;;0.88;;
26080;SDS011;13991;51.174;4.438;2023-06-14T13:39:39;3.35;;;0.98;;
26080;SDS011;13991;51.174;4.438;2023-06-14T13:42:05;5.00;;;0.93;;
26080;SDS011;13991;51.174;4.438;2023-06-14T13:44:30;4.32;;;1.08;;
26080;SDS011;13991;51.174;4.438;2023-06-14T13:46:56;9.52;;;1.02;;
26080;SDS011;13991;51.174;4.438;2023-06-14T13:49:22;1.95;;;0.90;;
26080;SDS011;13991;51.174;4.438;2023-06-14T13:51:48;13.85;;;1.10;;
26080;SDS011;13991;51.174;4.438;2023-06-14T13:54:16;3.78;;;0.95;;
26080;SDS011;13991;51.174;4.438;2023-06-14T13:56:47;4.03;;;1.02;;
26080;SDS011;13991;51.174;4.438;2023-06-14T13:59:16;6.28;;;1.20;;
26080;SDS011;13991;51.174;4.438;2023-06-14T14:01:45;2.95;;;0.70;;
26080;SDS011;13991;51.174;4.438;2023-06-14T14:04:12;3.00;;;1.10;;
26080;SDS011;13991;51.174;4.438;2023-06-14T14:06:38;8.15;;;1.40;;
26080;SDS011;13991;51.174;4.438;2023-06-14T14:09:03;13.95;;;1.27;;
26080;SDS011;13991;51.174;4.438;2023-06-14T14:11:29;6.22;;;1.05;;
26080;SDS011;13991;51.174;4.438;2023-06-14T14:13:58;3.53;;;0.90;;
26080;SDS011;13991;51.174;4.438;2023-06-14T14:16:24;4.43;;;0.85;;
26080;SDS011;13991;51.174;4.438;2023-06-14T14:18:52;2.30;;;0.77;;
26080;SDS011;13991;51.174;4.438;2023-06-14T14:21:18;5.10;;;0.90;;
26080;SDS011;13991;51.174;4.438;2023-06-14T14:23:46;12.88;;;1.52;;
26080;SDS011;13991;51.174;4.438;2023-06-14T14:26:13;4.30;;;1.17;;
26080;SDS011;13991;51.174;4.438;2023-06-14T14:28:38;5.18;;;1.45;;
26080;SDS011;13991;51.174;4.438;2023-06-14T14:31:04;5.70;;;1.00;;
26080;SDS011;13991;51.174;4.438;2023-06-14T14:33:33;4.38;;;0.98;;
26080;SDS011;13991;51.174;4.438;2023-06-14T14:36:00;8.20;;;1.10;;
26080;SDS011;13991;51.174;4.438;2023-06-14T14:38:28;4.70;;;0.93;;
26080;SDS011;13991;51.174;4.438;2023-06-14T14:40:54;5.63;;;0.82;;
26080;SDS011;13991;51.174;4.438;2023-06-14T14:43:20;3.85;;;1.35;;
26080;SDS011;13991;51.174;4.438;2023-06-14T14:45:48;9.77;;;1.30;;
26080;SDS011;13991;51.174;4.438;2023-06-14T14:48:14;3.83;;;1.05;;
26080;SDS011;13991;51.174;4.438;2023-06-14T14:50:40;1.85;;;0.90;;
26080;SDS011;13991;51.174;4.438;2023-06-14T14:53:06;3.55;;;1.30;;
26080;SDS011;13991;51.174;4.438;2023-06-14T14:55:32;5.70;;;1.13;;
26080;SDS011;13991;51.174;4.438;2023-06-14T14:58:00;3.50;;;0.80;;
26080;SDS011;13991;51.174;4.438;2023-06-14T15:00:25;1.73;;;1.15;;
26080;SDS011;13991;51.174;4.438;2023-06-14T15:02:51;2.92;;;0.98;;
26080;SDS011;13991;51.174;4.438;2023-06-14T15:05:20;6.18;;;1.30;;
26080;SDS011;13991;51.174;4.438;2023-06-14T15:07:52;4.18;;;0.98;;